AirNav   Pilot Hours Calculator
 
 1546 users online  

W91 Smith Mountain Lake Airport
Moneta, Virginia, USA

GOING TO MONETA?


FAA INFORMATION EFFECTIVE 30 DECEMBER 2021

Location

FAA Identifier: W91
Lat/Long: 37-06-27.8000N 079-35-32.9000W
37-06.463333N 079-35.548333W
37.1077222,-79.5924722
(estimated)
Elevation: 892.2 ft. / 271.9 m (surveyed)
Variation: 09W (2010)
From city: 4 miles SE of MONETA, VA
Time zone: UTC -5 (UTC -4 during Daylight Saving Time)
Zip code: 24121

Airport Operations

Airport use: Open to the public
Activation date: 03/1962
Control tower: no
ARTCC: WASHINGTON CENTER
FSS: LEESBURG FLIGHT SERVICE STATION
NOTAMs facility: DCA (NOTAM-D service available)
Attendance: CONTINUOUS
Wind indicator: yes
Segmented circle: no
Beacon: white-green (lighted land airport)
Operates sunset to sunrise.

Airport Communications

CTAF/UNICOM: 122.975
ROANOKE APPROACH: 135.0
ROANOKE DEPARTURE: 135.0
IC: 135.0

Nearby radio navigation aids

VOR radial/distance  VOR name  Freq  Var
LYHr248/19.2LYNCHBURG VOR/DME109.2005W
ODRr133/(22.6)WOODRUM VOR114.9008W
ROAr126/26.9ROANOKE VOR/DME109.4004W
DANr345/(34.6)DANVILLE VOR113.1006W
SBVr318/38.0SOUTH BOSTON VORTAC110.4005W

 
NDB name  Hdg/Dist  Freq  Var  ID
VINTON121/15.027708WVIT ...- .. -
TECH107/39.236808WTEC - . -.-.

Airport Services

Fuel available: 100LL
100LL:24-HR SELF-SERVE FUEL AVAILABLE WITH CREDIT CARD.
Parking: tiedowns
Airframe service: MAJOR
Powerplant service: MAJOR
Bottled oxygen: NONE
Bulk oxygen: NONE

Runway Information

Runway 5/23

Dimensions: 3058 x 50 ft. / 932 x 15 m
Surface: asphalt, in fair condition
Runway edge lights: medium intensity
RUNWAY 5  RUNWAY 23
Latitude: 37-06.285267N37-06.641983N
Longitude: 079-35.770783W079-35.326567W
Elevation: 854.7 ft.892.0 ft.
Traffic pattern: leftleft
Runway heading: 054 magnetic, 045 true234 magnetic, 225 true
Displaced threshold: 250 ft.no
Markings: basic, in good conditionnonprecision, in good condition
Runway end identifier lights: noyes
REIL OTS INDEFLY.
Touchdown point: yes, no lightsyes, no lights
Obstructions: 46 ft. trees, 382 ft. from runway, 93 ft. right of centerline, 3:1 slope to clear
RY 05 HAS +12 FT ROAD AT THLD 100 FT R. PWR POLE 128 FT RIGHT OF APCH 86 FT FM THLD.
15 ft. tree, 238 ft. from runway, 122 ft. left of centerline, 2:1 slope to clear

Airport Ownership and Management from official FAA records

Ownership: Privately-owned
Owner: SMITH MOUNTAIN LAKE AIRPORT, LLC.
1090 CUTLASS RD
MONETA, VA 24121
Phone 540-297-4859
Manager: MOE BAZAZAN
1090 CUTLASS RD
MONETA, VA 24121
Phone 540-297-4859

Airport Operational Statistics

Aircraft based on the field: 29
Single engine airplanes: 28
Multi engine airplanes: 1
    
Aircraft operations: avg 99/week *
76% local general aviation
24% transient general aviation
<1% air taxi
<1% military
* for 12-month period ending 31 December 2019

Additional Remarks

DEER ON & INVOF ARPT.
ROA TWR SVCS AVBL AT 540-563-1307.
LNDG FEE FOR ALL ACFT OVR 5500 LBS.
CLSD TO TRANSIENT PRACTICE LANDINGS. CLSD TO TRANSIENT ACFT PERFORMING TGL AND PLA.

Instrument Procedures

NOTE: All procedures below are presented as PDF files. If you need a reader for these files, you should download the free Adobe Reader.

NOT FOR NAVIGATION. Please procure official charts for flight.
FAA instrument procedures published for use from 30 December 2021 at 0901Z to 27 January 2022 at 0900Z.

 
IAPs - Instrument Approach Procedures
RNAV (GPS) RWY 23   download (202KB)
NOTE: Special Take-Off Minimums/Departure Procedures apply   download

Other nearby airports with instrument procedures:

W90 - New London Airport (16 nm NE)
KROA - Roanoke-Blacksburg Regional Airport/Woodrum Field (22 nm NW)
KLYH - Lynchburg Regional Airport/Preston Glenn Field (23 nm NE)
0V4 - Brookneal/Campbell County Airport (28 nm E)
W24 - Falwell Airport (28 nm NE)
 
Loc | Ops | Rwys | IFR | FBO | Links
Com | Nav | Svcs | Stats | Notes
Area around W91 (Smith Mountain Lake Airport)
 
Road maps at: MapQuest Bing Google
 
Aerial photo
WARNING: Photo may not be current or correct
Aerial photo of W91 (Smith Mountain Lake Airport)
Photo by Moe
Photo taken 23-May-2015
looking west.

Do you have a better or more recent aerial photo of Smith Mountain Lake Airport that you would like to share? If so, please send us your photo.

 
Sectional chart

 
Airport distance calculator
Flying to Smith Mountain Lake Airport? Find the distance to fly.

From to W91

Sunrise and sunset
Times for 26-Jan-2022
 Local
(UTC-5)
 Zulu
(UTC)
Morning civil twilight06:5911:59
Sunrise07:2712:27
Sunset17:3522:35
Evening civil twilight18:0323:03

Current date and time
Zulu (UTC)  26-Jan-2022 19:00:48
Local (UTC-5)  26-Jan-2022 14:00:48
 
METAR
KROA 
22nm NW 
261854Z VRB06KT 10SM CLR 02/M13 A3029 RMK AO2 SLP267 T00221133
KLYH 
23nm NE 
261854Z 00000KT 10SM CLR 03/M11 A3029 RMK AO2 SLP263 T00281111
K0V4 
28nm E 
261855Z AUTO 11007KT 340V210 10SM CLR 04/M09 A3030 RMK AO1 T00351092
KDAN 
35nm S 
261853Z AUTO 05006KT 10SM CLR 04/M11 A3031 RMK AO2 SLP260 T00391111
KMTV 
36nm SW 
261855Z AUTO 36006KT 10SM CLR 04/M11 A3030 RMK AO2 T00361114
KBCB 
40nm W 
261855Z AUTO 29004KT 10SM CLR 00/M12 A3026 RMK AO2 T00001116
KSIF 
42nm S 
261855Z AUTO 04004KT 10SM CLR 05/M11 A3030 RMK AO2 T00461113
KW78 
43nm SE 
261835Z AUTO 10SM CLR 04/M12 A3032 RMK AO1 P0007 T00381125
TAF
KROA 
22nm NW 
261720Z 2618/2718 30006KT P6SM SKC FM270400 36002KT P6SM SKC FM271600 21005KT P6SM SCT250
KLYH 
23nm NE 
261720Z 2618/2718 00000KT P6SM SKC FM270600 02003KT P6SM SKC FM271700 20005KT P6SM SCT250
NOTAMs
Click for the latest NOTAMs
NOTAMs are issued by the DoD/FAA and will open in a separate window not controlled by AirNav.

 

 
 

FBO, Fuel Providers, and Aircraft Ground Support

  
 Business Name 
 
 Contact 
 
 Services / Description 
 
Fuel Prices
 
Comments
  
Smith Mountain Lake Airport 540-297-4859
no information available

If you are affiliated with Smith Mountain Lake Airport and would like to show here your services, contact info, web link, logo, and more, click here
100LL
SS $4.98 
 Updated 18-Jan-2022
 
   2 read write
SS=Self service
Update Fuel Prices
 

Would you like to see your business listed on this page?

 If your business provides an interesting product or service to pilots, flight crews, aircraft, or users of the Smith Mountain Lake Airport, you should consider listing it here.  To start the listing process, click on the button below
 
Add a business
 

Other Pages about Smith Mountain Lake Airport

smlairport.com
 
Update a link
 
Copyright © AirNav, LLC. All rights reserved. Privacy Policy  Contact